sensor_id;sensor_type;location;lat;lon;timestamp;pressure;altitude;pressure_sealevel;temperature;humidity
65685;BME280;52405;50.844;-1.062;2022-10-16T00:01:27;100802.28;;;14.45;69.18
65685;BME280;52405;50.844;-1.062;2022-10-16T00:03:53;100801.31;;;14.40;68.68
65685;BME280;52405;50.844;-1.062;2022-10-16T00:06:20;100791.59;;;14.34;69.17
65685;BME280;52405;50.844;-1.062;2022-10-16T00:08:46;100791.56;;;14.33;69.23
65685;BME280;52405;50.844;-1.062;2022-10-16T00:11:26;100794.13;;;14.31;69.16
65685;BME280;52405;50.844;-1.062;2022-10-16T00:13:56;100789.75;;;14.29;68.80
65685;BME280;52405;50.844;-1.062;2022-10-16T00:16:22;100787.94;;;14.26;68.89
65685;BME280;52405;50.844;-1.062;2022-10-16T00:18:47;100798.38;;;14.24;69.24
65685;BME280;52405;50.844;-1.062;2022-10-16T00:21:16;100805.25;;;14.21;68.89
65685;BME280;52405;50.844;-1.062;2022-10-16T00:23:42;100810.47;;;14.21;68.30
65685;BME280;52405;50.844;-1.062;2022-10-16T00:26:12;100800.88;;;14.20;68.61
65685;BME280;52405;50.844;-1.062;2022-10-16T00:28:38;100792.94;;;14.15;69.00
65685;BME280;52405;50.844;-1.062;2022-10-16T00:31:05;100802.66;;;14.22;69.25
65685;BME280;52405;50.844;-1.062;2022-10-16T00:33:31;100805.31;;;14.24;69.31
65685;BME280;52405;50.844;-1.062;2022-10-16T00:36:01;100808.88;;;14.27;68.53
65685;BME280;52405;50.844;-1.062;2022-10-16T00:38:27;100808.91;;;14.29;68.41
65685;BME280;52405;50.844;-1.062;2022-10-16T00:40:53;100800.16;;;14.27;68.80
65685;BME280;52405;50.844;-1.062;2022-10-16T00:43:40;100768.44;;;14.10;68.49
65685;BME280;52405;50.844;-1.062;2022-10-16T00:48:35;100808.81;;;14.26;68.49
65685;BME280;52405;50.844;-1.062;2022-10-16T00:51:01;100818.41;;;14.25;68.03
65685;BME280;52405;50.844;-1.062;2022-10-16T00:53:27;100821.06;;;14.27;67.48
65685;BME280;52405;50.844;-1.062;2022-10-16T00:55:53;100832.34;;;14.26;68.42
65685;BME280;52405;50.844;-1.062;2022-10-16T00:58:20;100856.81;;;14.30;68.42
65685;BME280;52405;50.844;-1.062;2022-10-16T01:00:45;100855.09;;;14.30;68.97
65685;BME280;52405;50.844;-1.062;2022-10-16T01:03:32;100850.63;;;14.26;69.88
65685;BME280;52405;50.844;-1.062;2022-10-16T01:06:10;100851.44;;;14.23;68.91
65685;BME280;52405;50.844;-1.062;2022-10-16T01:14:59;100848.59;;;14.13;68.13
65685;BME280;52405;50.844;-1.062;2022-10-16T01:17:34;100853.78;;;14.11;68.11
65685;BME280;52405;50.844;-1.062;2022-10-16T01:20:31;100846.75;;;14.08;68.03
65685;BME280;52405;50.844;-1.062;2022-10-16T01:23:10;100851.03;;;14.05;67.84
65685;BME280;52405;50.844;-1.062;2022-10-16T01:28:24;100863.16;;;14.03;66.86
65685;BME280;52405;50.844;-1.062;2022-10-16T01:30:54;100857.94;;;14.03;67.13
65685;BME280;52405;50.844;-1.062;2022-10-16T01:33:28;100853.59;;;14.03;67.64
65685;BME280;52405;50.844;-1.062;2022-10-16T01:35:59;100863.22;;;14.06;67.48
65685;BME280;52405;50.844;-1.062;2022-10-16T01:38:32;100851.94;;;14.07;66.92
65685;BME280;52405;50.844;-1.062;2022-10-16T01:41:03;100858.09;;;14.09;67.12
65685;BME280;52405;50.844;-1.062;2022-10-16T01:43:43;100864.22;;;14.11;67.46
65685;BME280;52405;50.844;-1.062;2022-10-16T01:46:13;100863.34;;;14.11;67.83
65685;BME280;52405;50.844;-1.062;2022-10-16T01:48:41;100866.84;;;14.11;67.89
65685;BME280;52405;50.844;-1.062;2022-10-16T01:51:10;100871.22;;;14.12;67.19
65685;BME280;52405;50.844;-1.062;2022-10-16T01:53:37;100882.53;;;14.13;67.91
65685;BME280;52405;50.844;-1.062;2022-10-16T01:56:08;100872.09;;;14.13;67.67
65685;BME280;52405;50.844;-1.062;2022-10-16T01:58:39;100869.41;;;14.10;67.56
65685;BME280;52405;50.844;-1.062;2022-10-16T02:01:08;100868.53;;;14.09;67.72
65685;BME280;52405;50.844;-1.062;2022-10-16T02:03:37;100865.88;;;14.07;68.07
65685;BME280;52405;50.844;-1.062;2022-10-16T02:06:06;100864.13;;;14.06;68.41
65685;BME280;52405;50.844;-1.062;2022-10-16T02:08:32;100866.78;;;14.10;68.46
65685;BME280;52405;50.844;-1.062;2022-10-16T02:10:59;100870.34;;;14.12;68.55
65685;BME280;52405;50.844;-1.062;2022-10-16T02:13:32;100871.25;;;14.14;68.21
65685;BME280;52405;50.844;-1.062;2022-10-16T02:16:01;100878.25;;;14.15;68.29
65685;BME280;52405;50.844;-1.062;2022-10-16T02:18:26;100875.53;;;14.10;67.80
65685;BME280;52405;50.844;-1.062;2022-10-16T02:21:00;100867.75;;;14.13;68.35
65685;BME280;52405;50.844;-1.062;2022-10-16T02:23:43;100879.94;;;14.13;67.96
65685;BME280;52405;50.844;-1.062;2022-10-16T02:26:13;100875.53;;;14.10;68.19
65685;BME280;52405;50.844;-1.062;2022-10-16T02:28:45;100881.50;;;14.06;68.36
65685;BME280;52405;50.844;-1.062;2022-10-16T02:31:16;100877.09;;;14.03;68.11
65685;BME280;52405;50.844;-1.062;2022-10-16T02:33:44;100856.59;;;13.84;68.16
65685;BME280;52405;50.844;-1.062;2022-10-16T02:36:11;100880.38;;;13.95;68.74
65685;BME280;52405;50.844;-1.062;2022-10-16T02:38:38;100888.16;;;13.92;68.18
65685;BME280;52405;50.844;-1.062;2022-10-16T02:41:06;100890.66;;;13.88;68.84
65685;BME280;52405;50.844;-1.062;2022-10-16T02:43:32;100891.44;;;13.84;68.44
65685;BME280;52405;50.844;-1.062;2022-10-16T02:45:59;100891.31;;;13.80;68.56
65685;BME280;52405;50.844;-1.062;2022-10-16T02:48:24;100901.72;;;13.78;69.09
65685;BME280;52405;50.844;-1.062;2022-10-16T02:50:50;100904.28;;;13.75;69.21
65685;BME280;52405;50.844;-1.062;2022-10-16T02:53:16;100902.44;;;13.73;69.14
65685;BME280;52405;50.844;-1.062;2022-10-16T02:55:41;100908.56;;;13.73;68.62
65685;BME280;52405;50.844;-1.062;2022-10-16T02:58:07;100892.63;;;13.62;68.57
65685;BME280;52405;50.844;-1.062;2022-10-16T03:00:32;100912.88;;;13.71;68.31
65685;BME280;52405;50.844;-1.062;2022-10-16T03:02:58;100893.34;;;13.57;68.68
65685;BME280;52405;50.844;-1.062;2022-10-16T03:05:23;100904.81;;;13.63;68.88
65685;BME280;52405;50.844;-1.062;2022-10-16T03:07:49;100921.63;;;13.75;68.81
65685;BME280;52405;50.844;-1.062;2022-10-16T03:10:14;100926.91;;;13.76;69.44
65685;BME280;52405;50.844;-1.062;2022-10-16T03:12:40;100929.59;;;13.79;69.02
65685;BME280;52405;50.844;-1.062;2022-10-16T03:15:05;100929.66;;;13.81;69.18
65685;BME280;52405;50.844;-1.062;2022-10-16T03:17:32;100931.47;;;13.85;69.16
65685;BME280;52405;50.844;-1.062;2022-10-16T03:19:57;100937.56;;;13.85;69.16
65685;BME280;52405;50.844;-1.062;2022-10-16T03:22:23;100939.34;;;13.86;68.42
65685;BME280;52405;50.844;-1.062;2022-10-16T03:24:48;100940.28;;;13.88;68.17
65685;BME280;52405;50.844;-1.062;2022-10-16T03:27:14;100943.72;;;13.87;68.10
65685;BME280;52405;50.844;-1.062;2022-10-16T03:29:39;100945.38;;;13.84;67.92
65685;BME280;52405;50.844;-1.062;2022-10-16T03:32:05;100948.94;;;13.86;67.80
65685;BME280;52405;50.844;-1.062;2022-10-16T03:34:30;100945.34;;;13.82;67.41
65685;BME280;52405;50.844;-1.062;2022-10-16T03:36:55;100945.34;;;13.82;67.13
65685;BME280;52405;50.844;-1.062;2022-10-16T03:39:21;100955.78;;;13.82;66.05
65685;BME280;52405;50.844;-1.062;2022-10-16T03:41:46;100953.19;;;13.82;66.06
65685;BME280;52405;50.844;-1.062;2022-10-16T03:44:12;100960.97;;;13.81;66.25
65685;BME280;52405;50.844;-1.062;2022-10-16T03:46:38;100958.22;;;13.76;66.03
65685;BME280;52405;50.844;-1.062;2022-10-16T03:49:03;100968.66;;;13.76;66.14
65685;BME280;52405;50.844;-1.062;2022-10-16T03:51:29;100970.34;;;13.74;66.48
65685;BME280;52405;50.844;-1.062;2022-10-16T03:53:54;100978.16;;;13.73;66.68
65685;BME280;52405;50.844;-1.062;2022-10-16T03:56:20;100979.78;;;13.69;66.51
65685;BME280;52405;50.844;-1.062;2022-10-16T03:58:45;100978.03;;;13.68;66.10
65685;BME280;52405;50.844;-1.062;2022-10-16T04:01:11;100978.81;;;13.64;66.19
65685;BME280;52405;50.844;-1.062;2022-10-16T04:03:36;100986.59;;;13.62;66.45
65685;BME280;52405;50.844;-1.062;2022-10-16T04:06:01;100981.06;;;13.52;66.96
65685;BME280;52405;50.844;-1.062;2022-10-16T04:08:27;100998.56;;;13.56;67.03
65685;BME280;52405;50.844;-1.062;2022-10-16T04:10:52;100996.72;;;13.52;66.98
65685;BME280;52405;50.844;-1.062;2022-10-16T04:13:18;100986.84;;;13.41;66.61
65685;BME280;52405;50.844;-1.062;2022-10-16T04:15:44;101001.78;;;13.47;67.14
65685;BME280;52405;50.844;-1.062;2022-10-16T04:18:10;100986.69;;;13.35;66.87
65685;BME280;52405;50.844;-1.062;2022-10-16T04:20:35;101004.34;;;13.44;67.03
65685;BME280;52405;50.844;-1.062;2022-10-16T04:23:01;101007.66;;;13.38;66.67
65685;BME280;52405;50.844;-1.062;2022-10-16T04:25:26;100994.28;;;13.27;66.81
65685;BME280;52405;50.844;-1.062;2022-10-16T04:27:53;101005.81;;;13.36;67.37
65685;BME280;52405;50.844;-1.062;2022-10-16T04:30:18;101009.19;;;13.32;66.67
65685;BME280;52405;50.844;-1.062;2022-10-16T04:32:48;101009.97;;;13.29;66.83
65685;BME280;52405;50.844;-1.062;2022-10-16T04:35:14;101020.41;;;13.29;66.90
65685;BME280;52405;50.844;-1.062;2022-10-16T04:37:39;101028.19;;;13.27;67.64
65685;BME280;52405;50.844;-1.062;2022-10-16T04:40:05;101033.34;;;13.26;67.39
65685;BME280;52405;50.844;-1.062;2022-10-16T04:42:31;101039.38;;;13.25;67.08
65685;BME280;52405;50.844;-1.062;2022-10-16T04:44:56;101036.78;;;13.25;67.14
65685;BME280;52405;50.844;-1.062;2022-10-16T04:47:22;101033.28;;;13.24;67.78
65685;BME280;52405;50.844;-1.062;2022-10-16T04:49:47;101043.72;;;13.24;67.78
65685;BME280;52405;50.844;-1.062;2022-10-16T04:52:12;101043.69;;;13.23;67.75
65685;BME280;52405;50.844;-1.062;2022-10-16T04:54:38;101038.41;;;13.20;67.51
65685;BME280;52405;50.844;-1.062;2022-10-16T04:57:03;101055.75;;;13.19;67.50
65685;BME280;52405;50.844;-1.062;2022-10-16T04:59:30;101045.25;;;13.18;67.81
65685;BME280;52405;50.844;-1.062;2022-10-16T05:01:55;101065.25;;;13.17;67.99
65685;BME280;52405;50.844;-1.062;2022-10-16T05:04:21;101053.72;;;13.09;67.72
65685;BME280;52405;50.844;-1.062;2022-10-16T05:06:47;101063.22;;;13.08;67.75
65685;BME280;52405;50.844;-1.062;2022-10-16T05:09:13;101056.84;;;12.99;68.01
65685;BME280;52405;50.844;-1.062;2022-10-16T05:11:38;101076.19;;;13.05;68.32
65685;BME280;52405;50.844;-1.062;2022-10-16T05:14:04;101073.47;;;13.02;68.00
65685;BME280;52405;50.844;-1.062;2022-10-16T05:16:29;101080.31;;;12.99;68.62
65685;BME280;52405;50.844;-1.062;2022-10-16T05:18:56;101084.59;;;12.97;68.45
65685;BME280;52405;50.844;-1.062;2022-10-16T05:21:22;101088.94;;;12.96;67.94
65685;BME280;52405;50.844;-1.062;2022-10-16T05:23:47;101098.44;;;12.94;68.44
65685;BME280;52405;50.844;-1.062;2022-10-16T05:26:13;101102.75;;;12.93;68.20
65685;BME280;52405;50.844;-1.062;2022-10-16T05:28:38;101102.75;;;12.93;68.21
65685;BME280;52405;50.844;-1.062;2022-10-16T05:31:08;101096.66;;;12.93;68.48
65685;BME280;52405;50.844;-1.062;2022-10-16T05:33:34;101099.31;;;12.95;68.65
65685;BME280;52405;50.844;-1.062;2022-10-16T05:36:08;101104.53;;;12.95;68.56
65685;BME280;52405;50.844;-1.062;2022-10-16T05:38:37;101102.63;;;12.89;67.70
65685;BME280;52405;50.844;-1.062;2022-10-16T05:41:03;101120.22;;;12.96;68.36
65685;BME280;52405;50.844;-1.062;2022-10-16T05:43:30;101128.13;;;12.99;68.55
65685;BME280;52405;50.844;-1.062;2022-10-16T05:45:57;101129.16;;;13.04;68.38
65685;BME280;52405;50.844;-1.062;2022-10-16T05:48:23;101137.09;;;13.07;68.13
65685;BME280;52405;50.844;-1.062;2022-10-16T05:50:48;101147.66;;;13.12;68.10
65685;BME280;52405;50.844;-1.062;2022-10-16T05:53:14;101132.06;;;13.14;68.30
65685;BME280;52405;50.844;-1.062;2022-10-16T05:55:39;101139.13;;;13.16;67.90
65685;BME280;52405;50.844;-1.062;2022-10-16T05:58:05;101140.88;;;13.17;68.11
65685;BME280;52405;50.844;-1.062;2022-10-16T06:00:30;101148.00;;;13.23;67.97
65685;BME280;52405;50.844;-1.062;2022-10-16T06:02:56;101144.66;;;13.27;67.72
65685;BME280;52405;50.844;-1.062;2022-10-16T06:05:21;101145.63;;;13.29;67.62
65685;BME280;52405;50.844;-1.062;2022-10-16T06:07:46;101143.97;;;13.31;68.08
65685;BME280;52405;50.844;-1.062;2022-10-16T06:10:12;101153.75;;;13.38;67.66
65685;BME280;52405;50.844;-1.062;2022-10-16T06:12:37;101161.72;;;13.43;68.17
65685;BME280;52405;50.844;-1.062;2022-10-16T06:15:03;101169.69;;;13.47;68.07
65685;BME280;52405;50.844;-1.062;2022-10-16T06:17:29;101173.25;;;13.49;68.42
65685;BME280;52405;50.844;-1.062;2022-10-16T06:19:54;101146.13;;;13.44;67.98
65685;BME280;52405;50.844;-1.062;2022-10-16T06:22:20;101168.19;;;13.56;68.06
65685;BME280;52405;50.844;-1.062;2022-10-16T06:24:45;101177.88;;;13.60;68.32
65685;BME280;52405;50.844;-1.062;2022-10-16T06:27:11;101177.94;;;13.61;68.51
65685;BME280;52405;50.844;-1.062;2022-10-16T06:29:36;101181.47;;;13.63;67.96
65685;BME280;52405;50.844;-1.062;2022-10-16T06:32:02;101172.00;;;13.67;68.22
65685;BME280;52405;50.844;-1.062;2022-10-16T06:34:27;101170.31;;;13.69;68.34
65685;BME280;52405;50.844;-1.062;2022-10-16T06:36:53;101171.28;;;13.71;68.24
65685;BME280;52405;50.844;-1.062;2022-10-16T06:39:18;101173.09;;;13.74;68.28
65685;BME280;52405;50.844;-1.062;2022-10-16T06:41:44;101170.53;;;13.75;67.69
65685;BME280;52405;50.844;-1.062;2022-10-16T06:44:09;101173.16;;;13.75;68.10
65685;BME280;52405;50.844;-1.062;2022-10-16T06:46:35;101176.63;;;13.76;68.03
65685;BME280;52405;50.844;-1.062;2022-10-16T06:49:00;101184.50;;;13.77;68.23
65685;BME280;52405;50.844;-1.062;2022-10-16T06:51:26;101186.19;;;13.75;68.25
65685;BME280;52405;50.844;-1.062;2022-10-16T06:53:53;101197.47;;;13.74;68.57
65685;BME280;52405;50.844;-1.062;2022-10-16T06:56:20;101198.28;;;13.72;68.72
65685;BME280;52405;50.844;-1.062;2022-10-16T06:58:46;101191.97;;;13.65;68.94
65685;BME280;52405;50.844;-1.062;2022-10-16T07:01:13;101208.56;;;13.67;68.39
65685;BME280;52405;50.844;-1.062;2022-10-16T07:03:40;101202.34;;;13.63;68.85
65685;BME280;52405;50.844;-1.062;2022-10-16T07:06:07;101203.97;;;13.60;68.82
65685;BME280;52405;50.844;-1.062;2022-10-16T07:08:34;101213.50;;;13.58;68.79
65685;BME280;52405;50.844;-1.062;2022-10-16T07:11:01;101199.13;;;13.43;68.68
65685;BME280;52405;50.844;-1.062;2022-10-16T07:13:27;101213.31;;;13.52;68.49
65685;BME280;52405;50.844;-1.062;2022-10-16T07:15:53;101221.13;;;13.52;68.88
65685;BME280;52405;50.844;-1.062;2022-10-16T07:18:18;101222.88;;;13.51;68.74
65685;BME280;52405;50.844;-1.062;2022-10-16T07:20:43;101224.69;;;13.54;69.20
65685;BME280;52405;50.844;-1.062;2022-10-16T07:23:09;101222.94;;;13.54;69.39
65685;BME280;52405;50.844;-1.062;2022-10-16T07:25:34;101238.78;;;13.59;70.31
65685;BME280;52405;50.844;-1.062;2022-10-16T07:28:00;101239.88;;;13.67;69.90
65685;BME280;52405;50.844;-1.062;2022-10-16T07:30:25;101224.56;;;13.78;70.17
65685;BME280;52405;50.844;-1.062;2022-10-16T07:32:51;101230.06;;;13.87;70.34
65685;BME280;52405;50.844;-1.062;2022-10-16T07:35:16;101215.53;;;13.97;69.76
65685;BME280;52405;50.844;-1.062;2022-10-16T07:37:45;101229.84;;;14.10;69.87
65685;BME280;52405;50.844;-1.062;2022-10-16T07:40:11;101237.13;;;14.20;69.71
65685;BME280;52405;50.844;-1.062;2022-10-16T07:42:37;101240.91;;;14.31;69.47
65685;BME280;52405;50.844;-1.062;2022-10-16T07:45:03;101244.78;;;14.44;69.03
65685;BME280;52405;50.844;-1.062;2022-10-16T07:47:28;101239.13;;;14.59;68.48
65685;BME280;52405;50.844;-1.062;2022-10-16T07:49:54;101248.38;;;14.78;68.93
65685;BME280;52405;50.844;-1.062;2022-10-16T07:52:19;101259.22;;;14.93;68.31
65685;BME280;52405;50.844;-1.062;2022-10-16T07:54:45;101257.84;;;15.08;68.54
65685;BME280;52405;50.844;-1.062;2022-10-16T07:57:10;101262.53;;;15.21;68.10
65685;BME280;52405;50.844;-1.062;2022-10-16T07:59:36;101254.97;;;15.32;67.09
65685;BME280;52405;50.844;-1.062;2022-10-16T08:02:01;101267.53;;;15.47;67.17
65685;BME280;52405;50.844;-1.062;2022-10-16T08:04:26;101270.34;;;15.54;67.90
65685;BME280;52405;50.844;-1.062;2022-10-16T08:06:52;101268.81;;;15.63;67.87
65685;BME280;52405;50.844;-1.062;2022-10-16T08:09:19;101274.47;;;15.79;66.96
65685;BME280;52405;50.844;-1.062;2022-10-16T08:11:45;101267.31;;;16.10;66.36
65685;BME280;52405;50.844;-1.062;2022-10-16T08:14:10;101268.56;;;16.29;66.71
65685;BME280;52405;50.844;-1.062;2022-10-16T08:16:35;101278.59;;;16.49;66.22
65685;BME280;52405;50.844;-1.062;2022-10-16T08:19:01;101280.84;;;16.74;65.05
65685;BME280;52405;50.844;-1.062;2022-10-16T08:21:26;101282.47;;;17.13;64.65
65685;BME280;52405;50.844;-1.062;2022-10-16T08:23:53;101287.19;;;17.34;63.55
65685;BME280;52405;50.844;-1.062;2022-10-16T08:26:18;101291.69;;;17.42;62.90
65685;BME280;52405;50.844;-1.062;2022-10-16T08:28:44;101301.41;;;17.47;63.53
65685;BME280;52405;50.844;-1.062;2022-10-16T08:31:12;101297.06;;;17.48;62.78
65685;BME280;52405;50.844;-1.062;2022-10-16T08:33:40;101302.53;;;17.63;62.38
65685;BME280;52405;50.844;-1.062;2022-10-16T08:36:06;101303.66;;;17.81;61.65
65685;BME280;52405;50.844;-1.062;2022-10-16T08:38:32;101299.53;;;17.95;61.10
65685;BME280;52405;50.844;-1.062;2022-10-16T08:50:00;101290.81;;;19.55;56.03
65685;BME280;52405;50.844;-1.062;2022-10-16T08:52:32;101296.22;;;19.69;55.28
65685;BME280;52405;50.844;-1.062;2022-10-16T08:55:01;101307.66;;;19.71;55.84
65685;BME280;52405;50.844;-1.062;2022-10-16T08:57:27;101305.09;;;19.79;55.37
65685;BME280;52405;50.844;-1.062;2022-10-16T08:59:53;101300.81;;;19.96;54.16
65685;BME280;52405;50.844;-1.062;2022-10-16T09:02:40;101278.94;;;20.11;53.57
65685;BME280;52405;50.844;-1.062;2022-10-16T09:13:28;101303.91;;;21.15;50.91
65685;BME280;52405;50.844;-1.062;2022-10-16T09:19:13;101303.06;;;21.42;49.62
65685;BME280;52405;50.844;-1.062;2022-10-16T09:21:44;101305.72;;;21.44;49.68
65685;BME280;52405;50.844;-1.062;2022-10-16T09:24:13;101313.69;;;21.47;49.49
65685;BME280;52405;50.844;-1.062;2022-10-16T09:26:39;101316.31;;;21.50;49.83
65685;BME280;52405;50.844;-1.062;2022-10-16T09:29:05;101320.72;;;21.49;48.82
65685;BME280;52405;50.844;-1.062;2022-10-16T09:31:30;101312.78;;;21.57;49.16
65685;BME280;52405;50.844;-1.062;2022-10-16T09:34:00;101311.00;;;21.68;49.15
65685;BME280;52405;50.844;-1.062;2022-10-16T09:36:37;101308.38;;;21.82;48.73
65685;BME280;52405;50.844;-1.062;2022-10-16T09:39:06;101318.03;;;21.95;49.51
65685;BME280;52405;50.844;-1.062;2022-10-16T09:41:37;101326.88;;;21.91;48.72
65685;BME280;52405;50.844;-1.062;2022-10-16T09:44:13;101312.75;;;21.74;48.47
65685;BME280;52405;50.844;-1.062;2022-10-16T09:46:41;101320.69;;;21.75;47.86
65685;BME280;52405;50.844;-1.062;2022-10-16T09:49:24;101324.22;;;21.70;47.75
65685;BME280;52405;50.844;-1.062;2022-10-16T09:51:50;101328.66;;;21.60;47.94
65685;BME280;52405;50.844;-1.062;2022-10-16T09:54:19;101330.41;;;21.56;48.48
65685;BME280;52405;50.844;-1.062;2022-10-16T09:56:45;101333.03;;;21.70;48.43
65685;BME280;52405;50.844;-1.062;2022-10-16T09:59:16;101309.25;;;21.78;48.54
65685;BME280;52405;50.844;-1.062;2022-10-16T10:01:48;101340.06;;;22.13;48.30
65685;BME280;52405;50.844;-1.062;2022-10-16T10:04:16;101327.69;;;22.24;47.72
65685;BME280;52405;50.844;-1.062;2022-10-16T10:09:27;101326.78;;;22.14;45.84
65685;BME280;52405;50.844;-1.062;2022-10-16T10:14:27;101320.63;;;22.11;45.84
65685;BME280;52405;50.844;-1.062;2022-10-16T10:19:41;101324.16;;;22.31;45.90
65685;BME280;52405;50.844;-1.062;2022-10-16T10:22:40;101321.50;;;22.30;45.09
65685;BME280;52405;50.844;-1.062;2022-10-16T10:30:27;101318.81;;;22.42;45.77
65685;BME280;52405;50.844;-1.062;2022-10-16T10:36:00;101315.34;;;22.19;43.55
65685;BME280;52405;50.844;-1.062;2022-10-16T10:41:33;101291.59;;;21.97;45.91
65685;BME280;52405;50.844;-1.062;2022-10-16T10:44:23;101303.94;;;21.93;45.38
65685;BME280;52405;50.844;-1.062;2022-10-16T10:46:56;101303.97;;;21.72;45.60
65685;BME280;52405;50.844;-1.062;2022-10-16T10:54:56;101306.59;;;21.40;45.63
65685;BME280;52405;50.844;-1.062;2022-10-16T11:00:21;101303.06;;;21.31;46.48
65685;BME280;52405;50.844;-1.062;2022-10-16T11:06:02;101311.84;;;21.23;46.24
65685;BME280;52405;50.844;-1.062;2022-10-16T11:08:50;101314.50;;;21.20;46.20
65685;BME280;52405;50.844;-1.062;2022-10-16T11:11:24;101318.91;;;21.17;46.32
65685;BME280;52405;50.844;-1.062;2022-10-16T11:14:20;101325.91;;;21.06;45.62
65685;BME280;52405;50.844;-1.062;2022-10-16T11:17:10;101307.38;;;20.88;46.51
65685;BME280;52405;50.844;-1.062;2022-10-16T11:19:43;101303.03;;;21.02;45.92
65685;BME280;52405;50.844;-1.062;2022-10-16T11:27:43;101295.13;;;21.28;44.44
65685;BME280;52405;50.844;-1.062;2022-10-16T11:30:22;101303.06;;;21.31;44.50
65685;BME280;52405;50.844;-1.062;2022-10-16T11:35:50;101311.84;;;21.13;43.83
65685;BME280;52405;50.844;-1.062;2022-10-16T11:46:34;101315.06;;;20.26;44.69
65685;BME280;52405;50.844;-1.062;2022-10-16T11:49:13;101312.34;;;20.15;44.99
65685;BME280;52405;50.844;-1.062;2022-10-16T11:51:43;101307.91;;;20.03;45.36
65685;BME280;52405;50.844;-1.062;2022-10-16T11:56:44;101309.53;;;19.86;46.23
65685;BME280;52405;50.844;-1.062;2022-10-16T11:59:33;101309.50;;;19.80;45.96
65685;BME280;52405;50.844;-1.062;2022-10-16T12:04:53;101312.81;;;19.60;46.91
65685;BME280;52405;50.844;-1.062;2022-10-16T12:07:28;101320.69;;;19.57;47.44
65685;BME280;52405;50.844;-1.062;2022-10-16T12:09:58;101311.00;;;19.53;47.07
65685;BME280;52405;50.844;-1.062;2022-10-16T12:15:02;101300.41;;;19.45;47.43
65685;BME280;52405;50.844;-1.062;2022-10-16T12:17:37;101274.84;;;19.31;47.28
65685;BME280;52405;50.844;-1.062;2022-10-16T12:22:41;101290.69;;;19.38;47.90
65685;BME280;52405;50.844;-1.062;2022-10-16T12:28:16;101291.50;;;19.30;48.36
65685;BME280;52405;50.844;-1.062;2022-10-16T12:30:52;101287.06;;;19.24;48.55
65685;BME280;52405;50.844;-1.062;2022-10-16T12:33:56;101291.38;;;19.14;49.03
65685;BME280;52405;50.844;-1.062;2022-10-16T12:36:32;101277.22;;;19.03;49.13
65685;BME280;52405;50.844;-1.062;2022-10-16T12:38:58;101291.22;;;19.02;49.68
65685;BME280;52405;50.844;-1.062;2022-10-16T12:43:50;101287.69;;;18.97;49.59
65685;BME280;52405;50.844;-1.062;2022-10-16T12:48:43;101288.53;;;18.94;50.30
65685;BME280;52405;50.844;-1.062;2022-10-16T12:53:37;101286.69;;;18.85;50.23
65685;BME280;52405;50.844;-1.062;2022-10-16T12:56:25;101293.75;;;18.88;50.53
65685;BME280;52405;50.844;-1.062;2022-10-16T13:07:34;101284.97;;;18.89;51.32
65685;BME280;52405;50.844;-1.062;2022-10-16T13:21:19;101260.41;;;18.88;53.10
65685;BME280;52405;50.844;-1.062;2022-10-16T13:27:20;101254.28;;;18.90;53.81
65685;BME280;52405;50.844;-1.062;2022-10-16T13:29:30;101244.59;;;18.84;53.58
65685;BME280;52405;50.844;-1.062;2022-10-16T13:31:56;101246.34;;;18.86;54.11
65685;BME280;52405;50.844;-1.062;2022-10-16T13:34:23;101252.47;;;18.87;53.91
65685;BME280;52405;50.844;-1.062;2022-10-16T13:36:50;101254.19;;;18.83;54.51
65685;BME280;52405;50.844;-1.062;2022-10-16T13:39:29;101250.69;;;18.83;55.18
65685;BME280;52405;50.844;-1.062;2022-10-16T13:42:11;101253.31;;;18.83;55.32
65685;BME280;52405;50.844;-1.062;2022-10-16T13:44:42;101249.84;;;18.84;54.96
65685;BME280;52405;50.844;-1.062;2022-10-16T13:49:41;101239.19;;;18.76;55.12
65685;BME280;52405;50.844;-1.062;2022-10-16T13:52:17;101243.56;;;18.76;56.00
65685;BME280;52405;50.844;-1.062;2022-10-16T13:54:43;101248.84;;;18.76;56.08
65685;BME280;52405;50.844;-1.062;2022-10-16T13:57:15;101246.19;;;18.74;55.73
65685;BME280;52405;50.844;-1.062;2022-10-16T13:59:41;101246.97;;;18.67;55.97
65685;BME280;52405;50.844;-1.062;2022-10-16T14:02:45;101261.88;;;18.65;57.18
65685;BME280;52405;50.844;-1.062;2022-10-16T14:05:16;101250.41;;;18.58;56.80
65685;BME280;52405;50.844;-1.062;2022-10-16T14:07:42;101245.09;;;18.54;56.88
65685;BME280;52405;50.844;-1.062;2022-10-16T14:10:22;101254.66;;;18.45;57.20
65685;BME280;52405;50.844;-1.062;2022-10-16T14:12:59;101251.91;;;18.36;57.83
65685;BME280;52405;50.844;-1.062;2022-10-16T14:15:26;101257.91;;;18.26;58.10
65685;BME280;52405;50.844;-1.062;2022-10-16T14:17:52;101263.97;;;18.20;57.84
65685;BME280;52405;50.844;-1.062;2022-10-16T14:20:20;101257.78;;;18.17;58.30
65685;BME280;52405;50.844;-1.062;2022-10-16T14:23:16;101253.38;;;18.13;58.71
65685;BME280;52405;50.844;-1.062;2022-10-16T14:25:44;101230.44;;;18.02;58.15
65685;BME280;52405;50.844;-1.062;2022-10-16T14:30:36;101231.38;;;18.07;58.35
65685;BME280;52405;50.844;-1.062;2022-10-16T14:33:18;101236.66;;;18.09;58.48
65685;BME280;52405;50.844;-1.062;2022-10-16T14:35:45;101231.41;;;18.09;59.09
65685;BME280;52405;50.844;-1.062;2022-10-16T14:38:19;101244.59;;;18.10;58.59
65685;BME280;52405;50.844;-1.062;2022-10-16T14:40:49;101241.03;;;18.07;58.75
65685;BME280;52405;50.844;-1.062;2022-10-16T14:43:21;101225.22;;;18.04;58.89
65685;BME280;52405;50.844;-1.062;2022-10-16T14:45:52;101211.88;;;17.88;59.49
65685;BME280;52405;50.844;-1.062;2022-10-16T14:48:18;101233.84;;;17.95;59.48
65685;BME280;52405;50.844;-1.062;2022-10-16T14:50:44;101225.91;;;17.90;59.84
65685;BME280;52405;50.844;-1.062;2022-10-16T14:53:14;101227.59;;;17.85;60.14
65685;BME280;52405;50.844;-1.062;2022-10-16T14:55:40;101224.09;;;17.85;60.53
65685;BME280;52405;50.844;-1.062;2022-10-16T14:58:18;101210.00;;;17.81;61.03